Terminal Aerodrome Forecast
Issued by NWS

Home | Current Version | Previous Version | Text Only | Print | Product List | Glossary On
Versions: 1 2 3 4 5 6 7 8 9 10 11 12 13
000
FTUS46 KPDT 022320
TAFRDM
TAF
KRDM 022320Z 0300/0324 32013G19KT P6SM FEW120 BKN200
     FM030400 29008KT P6SM SCT100 OVC150
     FM030900 16005KT P6SM VCSH FEW090 OVC120
     FM031800 33008KT P6SM SCT100 BKN150
     FM032200 34010KT P6SM VCTS SCT080CB OVC120CB=

USA.gov is the U.S. government's official web portal to all federal, state and local government web resources and services.